Time;durP1;ratioP1;P1;durP2;ratioP2;P2;SDS_P1;SDS_P2;PMS_P1;PMS_P2;Temp;Humidity;BMP_temperature;BMP_pressure;BME280_temperature;BME280_humidity;BME280_pressure;Samples;Min_cycle;Max_cycle;Signal;HPM_P1;HPM_P2
2022/01/31 00:01:32;;;;;;;0.63;0.63;;;1.50;99.90;0.50;99193;;;;597355;238;24113;-76
2022/01/31 00:04:00;;;;;;;0.93;0.60;;;1.60;99.90;0.50;99196;;;;597291;238;24095;-76
2022/01/31 00:06:28;;;;;;;3.67;0.70;;;1.60;99.90;0.60;99192;;;;597785;235;24088;-77
2022/01/31 00:08:55;;;;;;;1.65;0.70;;;1.70;99.90;0.70;99194;;;;592447;235;34938;-75
2022/01/31 00:11:23;;;;;;;2.53;0.70;;;1.70;99.90;0.80;99196;;;;597760;238;24099;-75
2022/01/31 00:14:01;;;;;;;1.53;0.90;;;1.80;99.90;0.80;99191;;;;597767;238;24062;-76
2022/01/31 00:16:24;;;;;;;0.97;0.40;;;1.90;99.90;0.90;99193;;;;597202;235;24043;-76
2022/01/31 00:18:47;;;;;;;2.33;0.95;;;2.00;99.90;1.00;99196;;;;592322;238;34812;-76
2022/01/31 00:21:15;;;;;;;2.40;1.20;;;2.00;99.90;1.00;99192;;;;597524;238;24084;-76
2022/01/31 00:23:43;;;;;;;5.43;0.87;;;2.00;99.90;1.00;99185;;;;597541;235;24100;-77
2022/01/31 00:26:11;;;;;;;0.60;0.60;;;2.00;99.90;0.90;99179;;;;597553;235;24123;-78
2022/01/31 00:28:38;;;;;;;1.00;0.90;;;2.10;99.90;1.00;99181;;;;597574;235;25078;-77
2022/01/31 00:31:06;;;;;;;2.83;0.97;;;2.00;99.90;1.00;99179;;;;597562;235;24043;-77
2022/01/31 00:33:34;;;;;;;2.17;0.97;;;2.00;99.90;1.00;99183;;;;597557;235;24034;-76
2022/01/31 00:36:06;;;;;;;1.23;0.50;;;2.10;99.90;1.00;99183;;;;597545;235;24077;-75
2022/01/31 00:38:30;;;;;;;1.20;0.97;;;2.10;99.90;1.00;99189;;;;597250;240;24058;-75
2022/01/31 00:40:58;;;;;;;4.13;1.13;;;2.10;99.90;1.00;99170;;;;597562;238;24057;-76
2022/01/31 00:43:26;;;;;;;0.50;0.50;;;2.10;99.90;1.00;99174;;;;597586;238;24067;-76
2022/01/31 00:46:02;;;;;;;5.27;1.07;;;2.10;99.90;1.00;99167;;;;597567;236;24040;-79
2022/01/31 00:48:29;;;;;;;3.13;0.80;;;2.10;99.90;1.00;99167;;;;597635;238;24060;-76
2022/01/31 00:50:55;;;;;;;4.83;0.77;;;2.10;99.90;0.90;99164;;;;597898;235;24058;-76
2022/01/31 00:53:23;;;;;;;5.47;1.47;;;2.00;99.90;0.80;99149;;;;598446;234;24080;-78
2022/01/31 00:55:51;;;;;;;1.53;1.03;;;1.90;99.90;0.60;99150;;;;598017;238;24041;-77
2022/01/31 00:58:18;;;;;;;2.70;0.70;;;1.80;99.90;0.50;99148;;;;598032;235;24046;-77
2022/01/31 01:00:46;;;;;;;0.60;0.60;;;1.60;99.90;0.40;99143;;;;597781;238;24062;-77
2022/01/31 01:03:14;;;;;;;1.67;1.23;;;1.50;99.90;0.40;99143;;;;597815;238;24088;-78
2022/01/31 01:05:42;;;;;;;0.30;0.30;;;1.50;99.90;0.30;99139;;;;597619;238;24090;-73
2022/01/31 01:08:10;;;;;;;2.30;1.00;;;1.40;99.90;0.30;99137;;;;598093;240;24085;-75
2022/01/31 01:10:38;;;;;;;2.00;0.90;;;1.30;99.90;0.20;99130;;;;597829;238;24027;-75
2022/01/31 01:13:06;;;;;;;0.97;0.50;;;1.30;99.90;0.20;99130;;;;597874;238;24053;-74
2022/01/31 01:15:34;;;;;;;1.77;1.00;;;1.20;99.90;0.10;99116;;;;597916;238;24054;-77
2022/01/31 01:18:01;;;;;;;4.87;1.13;;;1.20;99.90;0.20;99113;;;;597961;235;24048;-76
2022/01/31 01:20:29;;;;;;;1.33;0.90;;;1.20;99.90;0.10;99122;;;;597952;235;24073;-74
2022/01/31 01:22:57;;;;;;;0.67;0.50;;;1.20;99.90;0.00;99107;;;;597936;238;24060;-77
2022/01/31 01:25:25;;;;;;;2.20;0.83;;;1.10;99.90;0.00;99106;;;;597962;238;24054;-75
2022/01/31 01:27:54;;;;;;;0.47;0.47;;;1.10;99.90;-0.10;99103;;;;597644;238;24077;-75
2022/01/31 01:30:21;;;;;;;2.27;0.90;;;1.00;99.90;-0.20;99089;;;;597541;238;24074;-77
2022/01/31 01:35:29;;;;;;;1.13;0.93;;;0.90;99.90;-0.20;99088;;;;597591;238;24062;-77
2022/01/31 01:37:53;;;;;;;3.73;0.90;;;0.80;99.90;-0.30;99091;;;;597030;240;24032;-76
2022/01/31 01:40:25;;;;;;;1.03;0.73;;;0.70;99.90;-0.40;99085;;;;597585;238;24035;-74
2022/01/31 01:42:49;;;;;;;1.53;0.80;;;0.70;99.90;-0.40;99092;;;;597172;240;24081;-78
2022/01/31 01:45:17;;;;;;;3.47;0.80;;;0.70;99.90;-0.50;99095;;;;597562;235;24031;-77
2022/01/31 01:47:45;;;;;;;3.53;0.80;;;0.60;99.90;-0.50;99091;;;;597516;238;24042;-76
2022/01/31 01:50:17;;;;;;;5.10;0.73;;;0.60;99.90;-0.60;99094;;;;597180;235;24042;-78
2022/01/31 01:52:41;;;;;;;4.43;1.10;;;0.60;99.90;-0.60;99082;;;;596856;240;24034;-76
2022/01/31 01:55:12;;;;;;;2.57;1.40;;;0.50;99.90;-0.70;99095;;;;597356;235;24038;-76
2022/01/31 01:57:37;;;;;;;4.87;1.43;;;0.50;99.90;-0.70;99081;;;;596857;240;24026;-78
2022/01/31 02:00:08;;;;;;;6.87;1.60;;;0.40;99.90;-0.70;99092;;;;597016;238;24088;-75
2022/01/31 02:02:32;;;;;;;5.47;1.33;;;0.30;99.90;-0.80;99081;;;;597624;235;24055;-75
2022/01/31 02:05:00;;;;;;;3.53;1.17;;;0.30;99.90;-0.80;99067;;;;598422;237;24095;-76
2022/01/31 02:07:28;;;;;;;3.77;1.57;;;0.30;99.90;-0.90;99068;;;;598388;238;24044;-78
2022/01/31 02:09:56;;;;;;;2.87;1.00;;;0.20;99.90;-0.90;99075;;;;598233;240;24081;-76
2022/01/31 02:12:27;;;;;;;4.60;2.83;;;0.20;99.90;-0.90;99071;;;;598193;238;24093;-75
2022/01/31 02:14:53;;;;;;;7.23;2.83;;;0.20;99.90;-0.90;99066;;;;598001;235;24080;-75
2022/01/31 02:17:20;;;;;;;12.00;3.20;;;0.10;99.90;-0.90;99063;;;;598117;238;24039;-76
2022/01/31 02:19:48;;;;;;;26.30;9.27;;;0.10;99.90;-0.90;99060;;;;598017;238;24066;-75
2022/01/31 02:22:16;;;;;;;26.57;9.20;;;0.20;99.90;-0.90;99060;;;;597419;235;24037;-76
2022/01/31 02:24:44;;;;;;;9.55;2.95;;;0.10;99.90;-1.00;99064;;;;592353;235;35011;-76
2022/01/31 02:27:12;;;;;;;2.90;1.17;;;0.10;99.90;-1.00;99069;;;;597408;235;24045;-76
2022/01/31 02:29:40;;;;;;;1.40;0.70;;;0.10;99.90;-1.00;99061;;;;597335;238;24086;-78
2022/01/31 02:32:08;;;;;;;1.07;0.50;;;0.10;99.90;-1.00;99061;;;;597442;238;24028;-77
2022/01/31 02:34:36;;;;;;;6.07;0.80;;;0.00;99.90;-1.00;99067;;;;597378;238;24062;-75
2022/01/31 02:37:03;;;;;;;1.97;1.53;;;0.00;99.90;-1.10;99067;;;;597524;235;24054;-75
2022/01/31 02:39:31;;;;;;;4.30;1.23;;;0.00;99.90;-1.10;99069;;;;597228;238;24128;-75
2022/01/31 02:41:59;;;;;;;4.00;1.53;;;0.00;99.90;-1.20;99064;;;;597516;238;24034;-75
2022/01/31 02:44:27;;;;;;;4.00;1.30;;;0.00;99.90;-1.20;99066;;;;597498;238;24046;-77
2022/01/31 02:46:56;;;;;;;1.83;1.17;;;-0.10;99.90;-1.20;99069;;;;597461;235;24108;-75
2022/01/31 02:49:27;;;;;;;2.30;1.07;;;-0.10;99.90;-1.30;99067;;;;597383;235;24063;-77
2022/01/31 02:51:58;;;;;;;3.03;1.30;;;-0.20;99.90;-1.30;99068;;;;596897;240;24077;-76
2022/01/31 02:54:23;;;;;;;9.13;1.47;;;-0.20;99.90;-1.40;99059;;;;596703;240;24066;-75
2022/01/31 02:56:50;;;;;;;4.07;1.80;;;-0.20;99.90;-1.40;99058;;;;597087;240;24097;-77
2022/01/31 02:59:18;;;;;;;2.33;1.20;;;-0.30;99.90;-1.40;99059;;;;597650;238;24045;-79
2022/01/31 03:01:46;;;;;;;2.80;1.10;;;-0.30;99.90;-1.50;99063;;;;597542;238;24040;-76
2022/01/31 03:04:14;;;;;;;4.63;1.80;;;-0.40;99.90;-1.50;99055;;;;597587;235;24122;-79
2022/01/31 03:06:49;;;;;;;3.83;1.20;;;-0.40;99.90;-1.50;99063;;;;597714;238;24034;-76
2022/01/31 03:09:11;;;;;;;7.73;1.70;;;-0.40;99.90;-1.50;99070;;;;597062;238;24045;-76
2022/01/31 03:11:38;;;;;;;6.17;1.60;;;-0.40;99.90;-1.50;99071;;;;597581;238;24032;-80
2022/01/31 03:14:06;;;;;;;4.43;1.30;;;-0.40;99.90;-1.50;99059;;;;598004;238;24029;-77
2022/01/31 03:16:39;;;;;;;3.60;1.60;;;-0.40;99.90;-1.50;99057;;;;598967;237;24052;-76
2022/01/31 03:19:02;;;;;;;4.40;1.40;;;-0.40;99.90;-1.50;99063;;;;598539;236;24030;-77
2022/01/31 03:21:31;;;;;;;3.23;1.30;;;-0.40;99.90;-1.50;99063;;;;598043;238;24059;-76
2022/01/31 03:23:59;;;;;;;3.03;1.27;;;-0.40;99.90;-1.60;99059;;;;598064;238;24073;-79
2022/01/31 03:26:26;;;;;;;5.93;2.03;;;-0.40;99.90;-1.50;99055;;;;598302;238;24064;-79
2022/01/31 03:28:54;;;;;;;5.50;1.47;;;-0.40;99.90;-1.50;99064;;;;598254;238;24046;-77
2022/01/31 03:31:22;;;;;;;4.27;1.20;;;-0.40;99.90;-1.50;99068;;;;597866;238;24129;-79
2022/01/31 03:33:53;;;;;;;3.90;1.40;;;-0.40;99.90;-1.50;99066;;;;597523;238;24054;-80
2022/01/31 03:36:19;;;;;;;4.23;1.70;;;-0.40;99.90;-1.50;99070;;;;597577;240;24050;-80
2022/01/31 03:38:47;;;;;;;5.57;1.77;;;-0.40;99.90;-1.60;99071;;;;598030;238;24038;-78
2022/01/31 03:41:18;;;;;;;5.43;1.40;;;-0.40;99.90;-1.60;99069;;;;597906;238;24056;-76
2022/01/31 03:43:42;;;;;;;6.93;1.37;;;-0.40;99.90;-1.60;99056;;;;597396;240;24010;-80
2022/01/31 03:46:10;;;;;;;3.03;1.70;;;-0.50;99.90;-1.60;99067;;;;597536;238;24045;-80
2022/01/31 03:48:41;;;;;;;5.97;2.07;;;-0.50;99.90;-1.60;99065;;;;597703;235;24054;-81
2022/01/31 03:51:07;;;;;;;10.73;1.37;;;-0.50;99.90;-1.70;99067;;;;596882;235;24074;-79
2022/01/31 03:53:35;;;;;;;3.50;1.57;;;-0.50;99.90;-1.70;99064;;;;597585;238;24085;-76
2022/01/31 03:56:02;;;;;;;5.23;1.20;;;-0.50;99.90;-1.70;99043;;;;597759;238;24112;-77
2022/01/31 03:58:30;;;;;;;4.97;1.80;;;-0.50;99.90;-1.70;99047;;;;597642;238;24025;-78
2022/01/31 04:00:58;;;;;;;6.80;2.10;;;-0.60;99.90;-1.80;99042;;;;597256;238;24061;-78
2022/01/31 04:03:26;;;;;;;8.40;2.00;;;-0.60;99.90;-1.80;99048;;;;597132;238;24066;-76
2022/01/31 04:05:55;;;;;;;6.67;2.50;;;-0.70;99.90;-1.80;99038;;;;597649;238;24029;-79
2022/01/31 04:08:23;;;;;;;8.13;2.47;;;-0.70;99.90;-1.90;99040;;;;597720;236;24034;-78
2022/01/31 04:10:50;;;;;;;5.23;2.60;;;-0.70;99.90;-1.80;99047;;;;597539;238;24068;-77
2022/01/31 04:13:18;;;;;;;6.97;1.67;;;-0.70;99.90;-1.90;99048;;;;597213;238;24038;-79
2022/01/31 04:15:46;;;;;;;6.10;3.53;;;-0.70;99.90;-1.90;99039;;;;597558;238;24089;-77
2022/01/31 04:18:15;;;;;;;4.60;1.80;;;-0.70;99.90;-1.90;99038;;;;597571;236;24086;-77
2022/01/31 04:20:43;;;;;;;4.43;1.60;;;-0.80;99.90;-1.80;99036;;;;597042;238;24078;-77
2022/01/31 04:23:16;;;;;;;4.23;1.80;;;-0.70;99.90;-1.80;99043;;;;597287;238;24127;-76
2022/01/31 04:28:23;;;;;;;4.23;1.70;;;-0.70;99.90;-1.80;99037;;;;598830;237;24079;-79
2022/01/31 04:30:57;;;;;;;8.87;2.13;;;-0.60;99.90;-1.70;99036;;;;597987;240;24043;-79
2022/01/31 04:33:21;;;;;;;3.77;1.57;;;-0.50;99.90;-1.70;99038;;;;598049;240;24025;-76
2022/01/31 04:35:53;;;;;;;2.40;1.47;;;-0.60;99.90;-1.60;99034;;;;598132;238;24033;-76
2022/01/31 04:38:17;;;;;;;4.40;1.53;;;-0.50;99.90;-1.50;99029;;;;597590;240;24015;-77
2022/01/31 04:40:45;;;;;;;5.47;1.80;;;-0.40;99.90;-1.40;99017;;;;597884;238;24038;-78
2022/01/31 04:43:13;;;;;;;6.20;1.63;;;-0.30;99.90;-1.40;99025;;;;597929;238;24026;-78
2022/01/31 04:45:47;;;;;;;5.37;1.80;;;-0.30;99.90;-1.30;99022;;;;597925;240;24074;-81
2022/01/31 04:48:08;;;;;;;6.00;1.80;;;-0.20;99.90;-1.30;99028;;;;584471;234;24178;-79
2022/01/31 04:50:36;;;;;;;2.67;1.37;;;-0.20;99.90;-1.30;99018;;;;569854;251;24095;-78
2022/01/31 04:53:04;;;;;;;2.87;1.60;;;-0.20;99.90;-1.30;99016;;;;561163;251;24098;-76
2022/01/31 04:55:32;;;;;;;3.17;2.03;;;-0.20;99.90;-1.30;99010;;;;557558;253;24104;-78
2022/01/31 04:58:04;;;;;;;2.97;1.50;;;-0.20;99.90;-1.30;99007;;;;558618;256;24214;-78
2022/01/31 05:00:33;;;;;;;2.00;1.17;;;-0.20;99.90;-1.30;99005;;;;551646;256;24197;-77
2022/01/31 05:02:57;;;;;;;1.73;1.27;;;-0.20;99.90;-1.30;99004;;;;551569;255;24132;-77
2022/01/31 05:05:25;;;;;;;5.10;1.43;;;-0.20;99.90;-1.30;99016;;;;558445;256;24146;-77
2022/01/31 05:07:55;;;;;;;2.27;1.17;;;-0.10;99.90;-1.30;99012;;;;558436;256;24149;-78
2022/01/31 05:10:22;;;;;;;1.10;1.03;;;-0.20;99.90;-1.20;99011;;;;558393;256;24147;-77
2022/01/31 05:12:50;;;;;;;2.60;1.37;;;-0.10;99.90;-1.20;99001;;;;550050;256;24232;-79
2022/01/31 05:15:18;;;;;;;2.63;1.10;;;-0.10;99.90;-1.20;98997;;;;557993;256;24150;-79
2022/01/31 05:17:46;;;;;;;2.03;0.97;;;-0.10;99.90;-1.20;98997;;;;558100;256;24198;-79
2022/01/31 05:20:14;;;;;;;0.67;0.67;;;-0.10;99.90;-1.20;98992;;;;551202;256;24138;-79
2022/01/31 05:22:42;;;;;;;2.57;0.87;;;-0.10;99.90;-1.30;99009;;;;557951;256;24155;-79
2022/01/31 05:25:10;;;;;;;3.30;1.10;;;-0.10;99.90;-1.30;99005;;;;558105;256;24190;-80
2022/01/31 05:27:38;;;;;;;3.07;1.17;;;-0.20;99.90;-1.40;98997;;;;557995;256;24153;-79
2022/01/31 05:30:06;;;;;;;4.20;1.10;;;-0.20;99.90;-1.40;98990;;;;558199;256;24178;-77
2022/01/31 05:32:37;;;;;;;1.30;1.23;;;-0.20;99.90;-1.40;98989;;;;551129;256;24149;-78
2022/01/31 05:35:04;;;;;;;6.23;1.83;;;-0.30;99.90;-1.50;98986;;;;557995;256;24159;-80
2022/01/31 05:37:30;;;;;;;3.57;0.80;;;-0.30;99.90;-1.50;98992;;;;558793;255;24222;-80
2022/01/31 05:39:58;;;;;;;3.10;1.40;;;-0.40;99.90;-1.50;98985;;;;559109;255;24127;-77
2022/01/31 05:42:26;;;;;;;3.17;0.80;;;-0.40;99.90;-1.50;98982;;;;551246;256;24143;-79
2022/01/31 05:44:54;;;;;;;3.83;1.17;;;-0.40;99.90;-1.50;98982;;;;558704;256;24197;-79
2022/01/31 05:47:25;;;;;;;1.23;0.70;;;-0.40;99.90;-1.40;98992;;;;551785;255;24187;-79
2022/01/31 05:49:53;;;;;;;1.67;1.07;;;-0.30;99.90;-1.40;98977;;;;551269;256;24206;-81
2022/01/31 05:52:19;;;;;;;6.53;1.03;;;-0.20;99.90;-1.40;98975;;;;551330;256;24189;-78
2022/01/31 05:54:47;;;;;;;4.23;1.20;;;-0.30;99.90;-1.40;98988;;;;560011;256;24236;-79
2022/01/31 05:57:19;;;;;;;2.33;0.83;;;-0.30;99.90;-1.40;98986;;;;559802;256;24190;-79
2022/01/31 05:59:43;;;;;;;1.30;1.00;;;-0.30;99.90;-1.40;98984;;;;551255;256;24198;-79
2022/01/31 06:02:11;;;;;;;5.30;1.30;;;-0.30;99.90;-1.50;98985;;;;551700;256;24184;-79
2022/01/31 06:04:42;;;;;;;0.63;0.63;;;-0.30;99.90;-1.50;98985;;;;558646;256;24183;-79
2022/01/31 06:07:08;;;;;;;2.17;1.10;;;-0.50;99.90;-1.60;98979;;;;551526;256;24142;-79
2022/01/31 06:09:37;;;;;;;2.17;0.90;;;-0.50;99.90;-1.70;98975;;;;558594;252;24181;-79
2022/01/31 06:12:05;;;;;;;1.97;1.20;;;-0.50;99.90;-1.70;98977;;;;558652;256;24156;-78
2022/01/31 06:14:32;;;;;;;4.53;2.10;;;-0.50;99.90;-1.80;98970;;;;559241;252;24147;-79
2022/01/31 06:17:00;;;;;;;6.53;2.50;;;-0.60;99.90;-1.90;98965;;;;558203;256;24185;-78
2022/01/31 06:19:29;;;;;;;5.07;1.47;;;-0.70;99.90;-1.90;98961;;;;558066;256;24206;-78
2022/01/31 06:21:56;;;;;;;6.60;1.90;;;-0.70;99.90;-1.90;98960;;;;557917;256;24150;-79
2022/01/31 06:24:25;;;;;;;4.80;2.10;;;-0.80;99.90;-1.90;98972;;;;558094;256;24152;-79
2022/01/31 06:26:54;;;;;;;2.93;1.50;;;-0.80;99.90;-2.00;98967;;;;558000;256;24136;-78
2022/01/31 06:29:21;;;;;;;4.37;2.20;;;-0.80;99.90;-2.00;98960;;;;558134;256;24174;-79
2022/01/31 06:31:49;;;;;;;3.40;1.80;;;-0.90;99.90;-2.00;98965;;;;551113;256;24138;-79
2022/01/31 06:34:18;;;;;;;5.30;1.73;;;-0.90;99.90;-2.00;98955;;;;558086;256;24143;-79
2022/01/31 06:36:45;;;;;;;5.00;2.10;;;-0.80;99.90;-2.00;98964;;;;558048;256;24150;-79
2022/01/31 06:39:13;;;;;;;4.10;1.53;;;-0.90;99.90;-2.00;98969;;;;551058;256;24154;-79
2022/01/31 06:41:42;;;;;;;5.60;2.30;;;-0.90;99.90;-2.00;98967;;;;558112;256;25178;-78
2022/01/31 06:44:10;;;;;;;3.93;1.63;;;-0.90;99.90;-2.00;98966;;;;557991;256;24128;-79
2022/01/31 06:46:37;;;;;;;6.60;2.00;;;-0.80;99.90;-1.90;98966;;;;558201;256;24146;-78
2022/01/31 06:49:05;;;;;;;3.03;1.50;;;-0.80;99.90;-1.90;98961;;;;559126;255;24179;-79
2022/01/31 06:51:34;;;;;;;2.23;1.63;;;-0.80;99.90;-1.90;98953;;;;559895;255;24123;-79
2022/01/31 06:54:05;;;;;;;3.90;1.90;;;-0.80;99.90;-1.80;98955;;;;559289;256;24187;-79
2022/01/31 06:56:31;;;;;;;5.73;2.20;;;-0.70;99.90;-1.80;98945;;;;559182;256;24141;-79
2022/01/31 06:58:58;;;;;;;6.13;2.70;;;-0.70;99.90;-1.80;98942;;;;559241;256;24153;-79
2022/01/31 07:01:26;;;;;;;7.40;2.50;;;-0.70;99.90;-1.70;98951;;;;552195;256;24124;-79
2022/01/31 07:03:54;;;;;;;7.37;2.63;;;-0.60;99.90;-1.70;98950;;;;560272;256;24165;-79
2022/01/31 07:06:24;;;;;;;4.80;2.10;;;-0.60;99.90;-1.60;98947;;;;552184;256;24162;-78
2022/01/31 07:08:50;;;;;;;4.83;2.43;;;-0.50;99.90;-1.50;98944;;;;551863;256;24190;-78
2022/01/31 07:11:23;;;;;;;4.83;2.03;;;-0.50;99.90;-1.50;98946;;;;558858;256;25196;-79
2022/01/31 07:13:48;;;;;;;5.00;1.80;;;-0.40;99.90;-1.50;98955;;;;558521;256;24145;-79
2022/01/31 07:16:13;;;;;;;6.93;2.27;;;-0.40;99.90;-1.40;98951;;;;558549;256;24191;-80
2022/01/31 07:18:42;;;;;;;4.37;1.73;;;-0.30;99.90;-1.40;98951;;;;558497;256;24136;-79
2022/01/31 07:21:13;;;;;;;4.97;1.93;;;-0.30;99.90;-1.30;98955;;;;558357;256;24181;-80
2022/01/31 07:24:05;;;;;;;5.47;1.93;;;-0.20;99.90;-1.20;98955;;;;558502;256;24139;-79
2022/01/31 07:26:20;;;;;;;2.17;1.33;;;-0.10;99.90;-1.10;98949;;;;550883;256;24170;-79
2022/01/31 07:28:48;;;;;;;6.50;1.73;;;-0.10;99.90;-1.10;98961;;;;558277;256;24132;-79
2022/01/31 07:31:16;;;;;;;3.23;1.40;;;0.00;99.90;-1.00;98961;;;;558121;256;24160;-79
2022/01/31 07:33:44;;;;;;;2.53;1.57;;;0.10;99.90;-0.90;98957;;;;551385;256;24167;-79
2022/01/31 07:36:11;;;;;;;3.30;1.60;;;0.10;99.90;-0.90;98961;;;;551282;256;24144;-79
2022/01/31 07:38:39;;;;;;;2.30;1.20;;;0.20;99.90;-0.80;98956;;;;551414;256;24127;-80
2022/01/31 07:41:12;;;;;;;2.57;1.00;;;0.30;99.90;-0.80;98964;;;;550578;256;24174;-79
2022/01/31 07:43:38;;;;;;;3.60;1.43;;;0.30;99.90;-0.70;98965;;;;551462;253;24196;-78
2022/01/31 07:46:03;;;;;;;2.73;1.33;;;0.40;99.90;-0.60;98950;;;;551478;256;24190;-78
2022/01/31 07:48:31;;;;;;;3.30;1.93;;;0.40;99.90;-0.60;98963;;;;551280;256;24192;-79
2022/01/31 07:50:59;;;;;;;5.83;1.93;;;0.50;99.90;-0.50;98960;;;;559498;255;24131;-79
2022/01/31 07:53:27;;;;;;;4.33;1.73;;;0.60;99.90;-0.40;98959;;;;551342;256;24143;-79
2022/01/31 07:55:55;;;;;;;9.25;2.90;;;0.70;99.90;-0.30;98963;;;;544951;256;35636;-78
2022/01/31 07:58:23;;;;;;;6.07;3.03;;;0.80;99.90;-0.20;98963;;;;549834;256;24183;-79
2022/01/31 08:00:51;;;;;;;5.13;2.67;;;0.90;99.90;-0.10;98963;;;;552505;255;24158;-79
2022/01/31 08:03:20;;;;;;;8.13;3.20;;;1.00;99.90;0.00;98961;;;;552771;255;24237;-80
2022/01/31 08:05:46;;;;;;;7.63;3.17;;;1.00;99.90;0.10;98961;;;;552431;255;24146;-79
2022/01/31 08:08:14;;;;;;;8.70;3.20;;;1.10;99.90;0.10;98959;;;;552408;255;24170;-79
2022/01/31 08:10:46;;;;;;;7.07;3.10;;;1.20;99.90;0.20;98953;;;;550254;256;24149;-79
2022/01/31 08:13:10;;;;;;;8.87;2.60;;;1.30;99.90;0.30;98948;;;;552055;256;24142;-80
2022/01/31 08:16:02;;;;;;;4.93;2.80;;;1.40;99.90;0.30;98947;;;;551875;255;24155;-79
2022/01/31 08:18:07;;;;;;;9.20;3.93;;;1.40;99.90;0.40;98955;;;;552410;256;24165;-79
2022/01/31 08:20:34;;;;;;;8.70;4.17;;;1.40;99.90;0.40;98948;;;;551620;256;24188;-80
2022/01/31 08:23:02;;;;;;;5.57;2.87;;;1.40;99.90;0.40;98940;;;;551556;256;24193;-79
2022/01/31 08:25:35;;;;;;;4.30;2.63;;;1.50;99.90;0.40;98941;;;;551862;256;24131;-79
2022/01/31 08:28:03;;;;;;;6.00;3.47;;;1.50;99.90;0.40;98943;;;;551865;256;24166;-78
2022/01/31 08:30:37;;;;;;;7.53;3.60;;;1.50;99.90;0.50;98937;;;;551688;256;24167;-79
2022/01/31 08:33:12;;;;;;;7.43;3.33;;;1.60;99.90;0.50;98937;;;;552219;252;24174;-78
2022/01/31 08:35:48;;;;;;;5.77;2.50;;;1.60;99.90;0.60;98938;;;;552106;256;25201;-79
2022/01/31 08:38:19;;;;;;;7.40;3.10;;;1.60;99.90;0.60;98925;;;;551400;256;24153;-80
2022/01/31 08:40:43;;;;;;;9.43;3.07;;;1.60;99.90;0.60;98919;;;;551074;256;24163;-79
2022/01/31 08:43:14;;;;;;;7.03;3.00;;;1.70;99.90;0.60;98911;;;;549435;256;24151;-78
2022/01/31 08:45:39;;;;;;;8.80;2.77;;;1.70;99.90;0.60;98916;;;;549272;256;24154;-79
2022/01/31 08:48:08;;;;;;;7.83;2.63;;;1.60;99.90;0.60;98907;;;;551479;256;24150;-80
2022/01/31 08:50:39;;;;;;;5.60;2.87;;;1.60;99.90;0.60;98910;;;;546503;256;35720;-80
2022/01/31 08:53:04;;;;;;;11.00;2.80;;;1.70;99.90;0.60;98900;;;;549565;256;24147;-78
2022/01/31 08:55:35;;;;;;;4.73;2.60;;;1.70;99.90;0.70;98904;;;;551282;256;24158;-79
2022/01/31 08:57:59;;;;;;;1.40;1.30;;;1.70;99.90;0.70;98905;;;;551161;255;24173;-79
2022/01/31 09:00:37;;;;;;;7.10;2.63;;;1.70;99.90;0.70;98903;;;;549385;256;24136;-79
2022/01/31 09:03:18;;;;;;;2.03;1.83;;;1.80;99.90;0.80;98905;;;;551171;256;24169;-78
2022/01/31 09:05:33;;;;;;;2.73;1.57;;;1.80;99.90;0.80;98905;;;;558458;256;24201;-78
2022/01/31 09:07:58;;;;;;;1.03;1.00;;;1.80;99.90;0.80;98900;;;;551285;256;24177;-79
2022/01/31 09:10:25;;;;;;;1.80;1.63;;;1.90;99.90;0.80;98898;;;;551716;256;24175;-79
2022/01/31 09:12:53;;;;;;;2.83;1.30;;;1.90;99.90;0.90;98904;;;;552384;255;24142;-79
2022/01/31 09:15:22;;;;;;;2.33;1.70;;;2.10;99.90;1.00;98908;;;;552259;255;24138;-79
2022/01/31 09:17:53;;;;;;;2.37;1.57;;;2.10;99.90;1.20;98901;;;;552361;256;24140;-79
2022/01/31 09:20:18;;;;;;;5.07;1.70;;;2.20;99.90;1.40;98910;;;;552294;256;24146;-78
2022/01/31 09:22:46;;;;;;;3.53;1.30;;;2.40;99.90;1.50;98905;;;;558164;256;24206;-78
2022/01/31 09:25:17;;;;;;;7.10;2.60;;;2.60;99.90;1.60;98913;;;;550256;256;24159;-79
2022/01/31 09:27:42;;;;;;;8.10;3.10;;;2.80;99.90;1.70;98913;;;;549899;256;24208;-79
2022/01/31 09:30:14;;;;;;;11.47;2.60;;;2.80;99.90;1.70;98917;;;;552020;256;24140;-80
2022/01/31 09:32:38;;;;;;;7.30;1.80;;;2.80;99.90;1.70;98916;;;;551644;256;24161;-79
2022/01/31 09:35:06;;;;;;;7.53;2.43;;;2.80;99.90;1.80;98915;;;;551915;256;24170;-79
2022/01/31 09:37:35;;;;;;;7.20;2.60;;;2.80;99.90;1.70;98914;;;;552083;256;24127;-79
2022/01/31 09:40:04;;;;;;;6.13;2.07;;;2.80;99.90;1.80;98917;;;;551974;256;24198;-79
2022/01/31 09:42:41;;;;;;;7.07;2.97;;;2.80;99.90;1.80;98909;;;;551975;256;24146;-78
2022/01/31 09:45:10;;;;;;;5.97;1.87;;;2.90;99.90;1.80;98911;;;;551536;256;24185;-79
2022/01/31 09:50:19;;;;;;;6.10;1.43;;;2.80;99.90;1.80;98928;;;;549485;256;24151;-79
2022/01/31 09:52:47;;;;;;;4.73;2.33;;;2.80;99.90;1.70;98918;;;;551307;256;24142;-79
2022/01/31 09:55:15;;;;;;;3.03;2.30;;;2.80;99.90;1.80;98918;;;;551234;256;24145;-78
2022/01/31 09:57:43;;;;;;;7.53;2.10;;;2.70;99.90;2.00;98922;;;;551329;256;24151;-79
2022/01/31 10:00:11;;;;;;;1.67;1.43;;;2.90;99.90;2.00;98913;;;;551270;256;24171;-79
2022/01/31 10:02:39;;;;;;;3.37;2.10;;;3.00;99.90;2.00;98921;;;;549339;254;24162;-78
2022/01/31 10:05:08;;;;;;;5.97;1.97;;;3.10;99.90;2.10;98928;;;;551292;252;24169;-79
2022/01/31 10:07:45;;;;;;;6.40;1.73;;;3.00;99.90;2.10;98920;;;;551426;256;24143;-78
2022/01/31 10:10:24;;;;;;;5.63;2.40;;;3.10;99.90;2.00;98919;;;;559344;254;24140;-79
2022/01/31 10:18:09;;;;;;;2.87;1.93;;;2.80;99.90;1.90;98925;;;;549707;255;24135;-80
2022/01/31 10:20:37;;;;;;;2.43;1.73;;;2.80;99.90;1.90;98932;;;;551724;256;24178;-78
2022/01/31 10:23:08;;;;;;;5.43;2.30;;;2.90;99.90;2.00;98929;;;;551958;254;24161;-79
2022/01/31 10:25:36;;;;;;;4.87;1.13;;;2.90;99.90;2.10;98917;;;;561975;251;24173;-78
2022/01/31 10:28:04;;;;;;;2.60;1.27;;;3.00;99.90;2.20;98907;;;;560273;256;24143;-79
2022/01/31 10:30:32;;;;;;;13.23;7.70;;;3.20;99.90;2.20;98915;;;;565716;251;24123;-79
2022/01/31 10:33:00;;;;;;;7.67;4.30;;;3.20;99.90;2.20;98913;;;;549930;256;24156;-78
2022/01/31 10:35:29;;;;;;;3.33;2.13;;;3.20;99.90;2.10;98908;;;;549747;256;24161;-77
2022/01/31 10:38:05;;;;;;;1.93;1.07;;;3.10;99.90;2.00;98912;;;;567131;251;24109;-79
2022/01/31 10:43:55;;;;;;;5.50;2.10;;;2.90;99.90;1.80;98911;;;;559727;255;24137;-77
2022/01/31 10:51:49;;;;;;;2.23;1.27;;;2.70;99.90;1.80;98914;;;;555861;256;25219;-78
2022/01/31 10:54:05;;;;;;;1.57;0.73;;;2.70;99.90;1.70;98899;;;;550660;256;24279;-79
2022/01/31 10:56:46;;;;;;;11.50;3.47;;;2.70;99.90;1.80;98900;;;;565400;251;24113;-78
2022/01/31 10:59:20;;;;;;;1.13;0.57;;;2.70;99.90;1.80;98903;;;;550734;256;24146;-78
2022/01/31 11:01:47;;;;;;;2.73;1.97;;;2.70;99.90;1.70;98898;;;;559496;251;24161;-78
2022/01/31 11:04:15;;;;;;;5.60;2.80;;;2.70;99.90;1.70;98899;;;;564324;254;24227;-78
2022/01/31 11:06:46;;;;;;;6.17;2.40;;;2.70;99.90;1.70;98901;;;;557227;253;24214;-78
2022/01/31 11:09:17;;;;;;;2.60;1.57;;;2.70;99.90;1.80;98900;;;;550831;256;24155;-77
2022/01/31 11:11:42;;;;;;;5.23;1.70;;;2.70;99.90;1.80;98903;;;;550386;256;24214;-79
2022/01/31 11:14:14;;;;;;;2.00;1.70;;;2.80;99.90;1.80;98897;;;;555481;256;24181;-77
2022/01/31 11:16:43;;;;;;;5.27;2.80;;;2.80;99.90;1.80;98899;;;;551045;256;24201;-78
2022/01/31 11:19:09;;;;;;;3.17;1.63;;;2.80;99.90;1.90;98907;;;;563749;251;24182;-78
2022/01/31 11:21:35;;;;;;;1.77;1.10;;;2.80;99.90;2.00;98918;;;;553992;253;24123;-78
2022/01/31 11:24:04;;;;;;;6.33;2.13;;;3.00;99.90;2.10;98914;;;;551441;256;24172;-78
2022/01/31 11:26:40;;;;;;;2.63;1.67;;;3.00;99.90;2.10;98905;;;;561217;251;25179;-79
2022/01/31 11:29:09;;;;;;;8.37;2.27;;;3.20;99.90;2.30;98912;;;;561267;251;24131;-77
2022/01/31 11:31:40;;;;;;;2.67;1.53;;;3.20;99.90;2.40;98917;;;;549184;256;24150;-79
2022/01/31 11:34:09;;;;;;;4.43;1.90;;;3.40;99.90;2.50;98920;;;;548931;256;24142;-77
2022/01/31 11:36:36;;;;;;;5.47;1.57;;;3.40;99.90;2.40;98921;;;;562540;251;24171;-78
2022/01/31 11:39:04;;;;;;;1.33;1.10;;;3.40;99.90;2.40;98913;;;;552032;256;24141;-77
2022/01/31 11:41:32;;;;;;;4.60;1.10;;;3.40;99.90;2.20;98921;;;;557386;256;24163;-79
2022/01/31 11:44:03;;;;;;;3.97;1.77;;;3.30;99.90;2.10;98915;;;;551723;256;24146;-79
2022/01/31 11:46:27;;;;;;;3.40;1.77;;;3.10;99.90;2.00;98925;;;;566739;251;24184;-79
2022/01/31 11:48:58;;;;;;;4.07;1.37;;;3.00;99.90;2.00;98917;;;;556772;256;24155;-79
2022/01/31 11:51:23;;;;;;;5.63;1.60;;;3.00;99.90;1.90;98923;;;;559261;254;24157;-79